sensor_id;sensor_type;location;lat;lon;timestamp;P1;durP1;ratioP1;P2;durP2;ratioP2
52458;SDS011;38372;52.902;6.024;2024-03-02T00:00:26;1.70;;;0.90;;
52458;SDS011;38372;52.902;6.024;2024-03-02T00:02:52;1.55;;;1.08;;
52458;SDS011;38372;52.902;6.024;2024-03-02T00:05:18;1.48;;;0.93;;
52458;SDS011;38372;52.902;6.024;2024-03-02T00:07:46;2.05;;;1.13;;
52458;SDS011;38372;52.902;6.024;2024-03-02T00:10:19;0.90;;;0.32;;
52458;SDS011;38372;52.902;6.024;2024-03-02T00:12:50;5.03;;;1.05;;
52458;SDS011;38372;52.902;6.024;2024-03-02T00:17:42;1.42;;;1.05;;
52458;SDS011;38372;52.902;6.024;2024-03-02T00:20:08;2.40;;;1.15;;
52458;SDS011;38372;52.902;6.024;2024-03-02T00:22:35;1.65;;;0.80;;
52458;SDS011;38372;52.902;6.024;2024-03-02T00:25:02;1.38;;;0.93;;
52458;SDS011;38372;52.902;6.024;2024-03-02T00:27:28;2.00;;;0.63;;
52458;SDS011;38372;52.902;6.024;2024-03-02T00:29:54;3.20;;;1.08;;
52458;SDS011;38372;52.902;6.024;2024-03-02T00:32:21;4.68;;;1.45;;
52458;SDS011;38372;52.902;6.024;2024-03-02T00:34:47;2.95;;;1.00;;
52458;SDS011;38372;52.902;6.024;2024-03-02T00:37:13;2.83;;;1.02;;
52458;SDS011;38372;52.902;6.024;2024-03-02T00:39:39;1.17;;;0.77;;
52458;SDS011;38372;52.902;6.024;2024-03-02T00:42:05;1.98;;;0.95;;
52458;SDS011;38372;52.902;6.024;2024-03-02T00:44:31;1.63;;;0.88;;
52458;SDS011;38372;52.902;6.024;2024-03-02T00:47:00;0.73;;;0.43;;
52458;SDS011;38372;52.902;6.024;2024-03-02T00:49:40;1.92;;;0.93;;
52458;SDS011;38372;52.902;6.024;2024-03-02T00:52:19;2.65;;;0.90;;
52458;SDS011;38372;52.902;6.024;2024-03-02T00:54:44;3.42;;;1.20;;
52458;SDS011;38372;52.902;6.024;2024-03-02T00:57:10;1.25;;;0.65;;
52458;SDS011;38372;52.902;6.024;2024-03-02T00:59:37;2.30;;;0.50;;
52458;SDS011;38372;52.902;6.024;2024-03-02T01:02:03;0.88;;;0.55;;
52458;SDS011;38372;52.902;6.024;2024-03-02T01:04:29;1.00;;;0.65;;
52458;SDS011;38372;52.902;6.024;2024-03-02T01:06:55;2.20;;;0.93;;
52458;SDS011;38372;52.902;6.024;2024-03-02T01:09:20;3.15;;;1.15;;
52458;SDS011;38372;52.902;6.024;2024-03-02T01:11:46;2.38;;;1.08;;
52458;SDS011;38372;52.902;6.024;2024-03-02T01:14:12;0.93;;;0.75;;
52458;SDS011;38372;52.902;6.024;2024-03-02T01:16:38;1.50;;;0.90;;
52458;SDS011;38372;52.902;6.024;2024-03-02T01:19:04;1.10;;;0.73;;
52458;SDS011;38372;52.902;6.024;2024-03-02T01:21:30;1.63;;;0.90;;
52458;SDS011;38372;52.902;6.024;2024-03-02T01:23:55;2.28;;;1.10;;
52458;SDS011;38372;52.902;6.024;2024-03-02T01:26:21;1.75;;;0.52;;
52458;SDS011;38372;52.902;6.024;2024-03-02T01:28:47;1.00;;;0.75;;
52458;SDS011;38372;52.902;6.024;2024-03-02T01:31:13;3.08;;;1.30;;
52458;SDS011;38372;52.902;6.024;2024-03-02T01:33:38;0.85;;;0.60;;
52458;SDS011;38372;52.902;6.024;2024-03-02T01:36:04;3.85;;;1.23;;
52458;SDS011;38372;52.902;6.024;2024-03-02T01:38:30;1.45;;;1.00;;
52458;SDS011;38372;52.902;6.024;2024-03-02T01:40:56;1.35;;;0.77;;
52458;SDS011;38372;52.902;6.024;2024-03-02T01:43:23;1.27;;;0.57;;
52458;SDS011;38372;52.902;6.024;2024-03-02T01:45:49;1.02;;;0.85;;
52458;SDS011;38372;52.902;6.024;2024-03-02T01:48:15;3.40;;;0.93;;
52458;SDS011;38372;52.902;6.024;2024-03-02T01:50:47;1.10;;;0.63;;
52458;SDS011;38372;52.902;6.024;2024-03-02T01:53:26;1.30;;;0.55;;
52458;SDS011;38372;52.902;6.024;2024-03-02T01:55:52;2.67;;;0.65;;
52458;SDS011;38372;52.902;6.024;2024-03-02T01:58:17;2.13;;;0.90;;
52458;SDS011;38372;52.902;6.024;2024-03-02T02:00:43;1.17;;;0.75;;
52458;SDS011;38372;52.902;6.024;2024-03-02T02:03:10;1.38;;;0.65;;
52458;SDS011;38372;52.902;6.024;2024-03-02T02:05:35;5.05;;;0.77;;
52458;SDS011;38372;52.902;6.024;2024-03-02T02:08:01;1.17;;;0.85;;
52458;SDS011;38372;52.902;6.024;2024-03-02T02:10:27;2.58;;;1.08;;
52458;SDS011;38372;52.902;6.024;2024-03-02T02:12:53;4.75;;;0.85;;
52458;SDS011;38372;52.902;6.024;2024-03-02T02:20:14;0.68;;;0.65;;
52458;SDS011;38372;52.902;6.024;2024-03-02T02:22:40;1.98;;;0.80;;
52458;SDS011;38372;52.902;6.024;2024-03-02T02:25:17;1.88;;;0.68;;
52458;SDS011;38372;52.902;6.024;2024-03-02T02:27:43;3.22;;;0.82;;
52458;SDS011;38372;52.902;6.024;2024-03-02T02:30:08;1.50;;;0.93;;
52458;SDS011;38372;52.902;6.024;2024-03-02T02:32:35;0.70;;;0.50;;
52458;SDS011;38372;52.902;6.024;2024-03-02T02:35:00;0.80;;;0.52;;
52458;SDS011;38372;52.902;6.024;2024-03-02T02:37:26;0.70;;;0.60;;
52458;SDS011;38372;52.902;6.024;2024-03-02T02:39:52;2.03;;;0.57;;
52458;SDS011;38372;52.902;6.024;2024-03-02T02:42:18;1.40;;;0.65;;
52458;SDS011;38372;52.902;6.024;2024-03-02T02:44:43;0.35;;;0.30;;
52458;SDS011;38372;52.902;6.024;2024-03-02T02:47:09;0.80;;;0.52;;
52458;SDS011;38372;52.902;6.024;2024-03-02T02:49:35;0.82;;;0.60;;
52458;SDS011;38372;52.902;6.024;2024-03-02T02:52:08;1.05;;;0.50;;
52458;SDS011;38372;52.902;6.024;2024-03-02T02:54:33;1.00;;;0.70;;
52458;SDS011;38372;52.902;6.024;2024-03-02T02:56:59;2.22;;;1.23;;
52458;SDS011;38372;52.902;6.024;2024-03-02T02:59:25;1.60;;;0.98;;
52458;SDS011;38372;52.902;6.024;2024-03-02T03:01:51;1.02;;;0.60;;
52458;SDS011;38372;52.902;6.024;2024-03-02T03:04:17;0.55;;;0.40;;
52458;SDS011;38372;52.902;6.024;2024-03-02T03:06:43;2.30;;;0.30;;
52458;SDS011;38372;52.902;6.024;2024-03-02T03:09:08;0.32;;;0.32;;
52458;SDS011;38372;52.902;6.024;2024-03-02T03:11:36;2.22;;;0.73;;
52458;SDS011;38372;52.902;6.024;2024-03-02T03:14:02;0.75;;;0.60;;
52458;SDS011;38372;52.902;6.024;2024-03-02T03:16:28;1.15;;;0.65;;
52458;SDS011;38372;52.902;6.024;2024-03-02T03:18:53;0.50;;;0.50;;
52458;SDS011;38372;52.902;6.024;2024-03-02T03:21:19;0.80;;;0.45;;
52458;SDS011;38372;52.902;6.024;2024-03-02T03:23:45;1.70;;;0.80;;
52458;SDS011;38372;52.902;6.024;2024-03-02T03:26:11;1.25;;;0.50;;
52458;SDS011;38372;52.902;6.024;2024-03-02T03:28:37;1.15;;;0.43;;
52458;SDS011;38372;52.902;6.024;2024-03-02T03:31:02;0.80;;;0.50;;
52458;SDS011;38372;52.902;6.024;2024-03-02T03:33:28;0.75;;;0.65;;
52458;SDS011;38372;52.902;6.024;2024-03-02T03:35:54;0.95;;;0.63;;
52458;SDS011;38372;52.902;6.024;2024-03-02T03:38:20;1.35;;;0.93;;
52458;SDS011;38372;52.902;6.024;2024-03-02T03:40:46;0.85;;;0.52;;
52458;SDS011;38372;52.902;6.024;2024-03-02T03:43:12;2.65;;;1.00;;
52458;SDS011;38372;52.902;6.024;2024-03-02T03:45:38;0.80;;;0.50;;
52458;SDS011;38372;52.902;6.024;2024-03-02T03:48:04;0.65;;;0.45;;
52458;SDS011;38372;52.902;6.024;2024-03-02T03:50:30;0.90;;;0.70;;
52458;SDS011;38372;52.902;6.024;2024-03-02T03:55:42;1.10;;;0.65;;
52458;SDS011;38372;52.902;6.024;2024-03-02T03:58:08;0.63;;;0.40;;
52458;SDS011;38372;52.902;6.024;2024-03-02T04:00:33;0.95;;;0.60;;
52458;SDS011;38372;52.902;6.024;2024-03-02T04:02:59;1.27;;;0.45;;
52458;SDS011;38372;52.902;6.024;2024-03-02T04:05:25;0.63;;;0.40;;
52458;SDS011;38372;52.902;6.024;2024-03-02T04:07:51;1.40;;;0.95;;
52458;SDS011;38372;52.902;6.024;2024-03-02T04:10:16;1.17;;;0.63;;
52458;SDS011;38372;52.902;6.024;2024-03-02T04:12:42;0.73;;;0.50;;
52458;SDS011;38372;52.902;6.024;2024-03-02T04:15:08;1.70;;;0.80;;
52458;SDS011;38372;52.902;6.024;2024-03-02T04:17:34;0.50;;;0.40;;
52458;SDS011;38372;52.902;6.024;2024-03-02T04:20:04;1.17;;;0.52;;
52458;SDS011;38372;52.902;6.024;2024-03-02T04:22:32;1.92;;;0.85;;
52458;SDS011;38372;52.902;6.024;2024-03-02T04:24:59;0.50;;;0.50;;
52458;SDS011;38372;52.902;6.024;2024-03-02T04:27:25;0.73;;;0.60;;
52458;SDS011;38372;52.902;6.024;2024-03-02T04:29:51;0.47;;;0.47;;
52458;SDS011;38372;52.902;6.024;2024-03-02T04:32:17;0.20;;;0.20;;
52458;SDS011;38372;52.902;6.024;2024-03-02T04:34:44;0.25;;;0.25;;
52458;SDS011;38372;52.902;6.024;2024-03-02T04:37:10;0.28;;;0.25;;
52458;SDS011;38372;52.902;6.024;2024-03-02T04:39:37;0.47;;;0.20;;
52458;SDS011;38372;52.902;6.024;2024-03-02T04:42:03;0.17;;;0.17;;
52458;SDS011;38372;52.902;6.024;2024-03-02T04:44:29;0.43;;;0.20;;
52458;SDS011;38372;52.902;6.024;2024-03-02T04:46:55;0.20;;;0.10;;
52458;SDS011;38372;52.902;6.024;2024-03-02T04:49:21;0.10;;;0.10;;
52458;SDS011;38372;52.902;6.024;2024-03-02T04:51:46;0.25;;;0.20;;
52458;SDS011;38372;52.902;6.024;2024-03-02T04:54:19;0.10;;;0.10;;
52458;SDS011;38372;52.902;6.024;2024-03-02T04:56:45;0.93;;;0.20;;
52458;SDS011;38372;52.902;6.024;2024-03-02T04:59:14;0.30;;;0.10;;
52458;SDS011;38372;52.902;6.024;2024-03-02T05:01:42;0.30;;;0.10;;
52458;SDS011;38372;52.902;6.024;2024-03-02T05:04:09;0.13;;;0.10;;
52458;SDS011;38372;52.902;6.024;2024-03-02T05:06:37;0.13;;;0.13;;
52458;SDS011;38372;52.902;6.024;2024-03-02T05:09:04;0.55;;;0.20;;
52458;SDS011;38372;52.902;6.024;2024-03-02T05:11:30;0.50;;;0.30;;
52458;SDS011;38372;52.902;6.024;2024-03-02T05:14:05;0.20;;;0.20;;
52458;SDS011;38372;52.902;6.024;2024-03-02T05:16:37;0.20;;;0.20;;
52458;SDS011;38372;52.902;6.024;2024-03-02T05:19:09;0.55;;;0.50;;
52458;SDS011;38372;52.902;6.024;2024-03-02T05:21:35;0.15;;;0.15;;
52458;SDS011;38372;52.902;6.024;2024-03-02T05:24:01;0.45;;;0.20;;
52458;SDS011;38372;52.902;6.024;2024-03-02T05:26:27;0.10;;;0.10;;
52458;SDS011;38372;52.902;6.024;2024-03-02T05:28:53;0.20;;;0.10;;
52458;SDS011;38372;52.902;6.024;2024-03-02T05:31:18;0.25;;;0.22;;
52458;SDS011;38372;52.902;6.024;2024-03-02T05:33:44;0.90;;;0.20;;
52458;SDS011;38372;52.902;6.024;2024-03-02T05:36:10;0.10;;;0.10;;
52458;SDS011;38372;52.902;6.024;2024-03-02T05:38:36;0.50;;;0.20;;
52458;SDS011;38372;52.902;6.024;2024-03-02T05:41:02;0.10;;;0.10;;
52458;SDS011;38372;52.902;6.024;2024-03-02T05:43:28;1.15;;;0.40;;
52458;SDS011;38372;52.902;6.024;2024-03-02T05:45:54;0.28;;;0.20;;
52458;SDS011;38372;52.902;6.024;2024-03-02T05:48:20;0.10;;;0.10;;
52458;SDS011;38372;52.902;6.024;2024-03-02T05:50:46;0.40;;;0.38;;
52458;SDS011;38372;52.902;6.024;2024-03-02T05:53:18;0.17;;;0.17;;
52458;SDS011;38372;52.902;6.024;2024-03-02T05:55:43;0.30;;;0.30;;
52458;SDS011;38372;52.902;6.024;2024-03-02T05:58:10;0.10;;;0.10;;
52458;SDS011;38372;52.902;6.024;2024-03-02T06:00:54;0.10;;;0.10;;
52458;SDS011;38372;52.902;6.024;2024-03-02T06:03:20;0.10;;;0.10;;
52458;SDS011;38372;52.902;6.024;2024-03-02T06:05:46;0.10;;;0.10;;
52458;SDS011;38372;52.902;6.024;2024-03-02T06:08:14;0.70;;;0.43;;
52458;SDS011;38372;52.902;6.024;2024-03-02T06:10:40;0.10;;;0.10;;
52458;SDS011;38372;52.902;6.024;2024-03-02T06:13:06;0.20;;;0.20;;
52458;SDS011;38372;52.902;6.024;2024-03-02T06:15:31;0.13;;;0.13;;
52458;SDS011;38372;52.902;6.024;2024-03-02T06:17:58;0.95;;;0.25;;
52458;SDS011;38372;52.902;6.024;2024-03-02T06:20:23;0.40;;;0.20;;
52458;SDS011;38372;52.902;6.024;2024-03-02T06:22:51;0.40;;;0.30;;
52458;SDS011;38372;52.902;6.024;2024-03-02T06:25:17;0.10;;;0.10;;
52458;SDS011;38372;52.902;6.024;2024-03-02T06:27:43;3.40;;;0.28;;
52458;SDS011;38372;52.902;6.024;2024-03-02T06:30:09;0.45;;;0.15;;
52458;SDS011;38372;52.902;6.024;2024-03-02T06:32:35;0.30;;;0.20;;
52458;SDS011;38372;52.902;6.024;2024-03-02T06:35:01;0.10;;;0.10;;
52458;SDS011;38372;52.902;6.024;2024-03-02T06:37:29;0.10;;;0.10;;
52458;SDS011;38372;52.902;6.024;2024-03-02T06:39:54;0.60;;;0.30;;
52458;SDS011;38372;52.902;6.024;2024-03-02T06:42:20;0.40;;;0.25;;
52458;SDS011;38372;52.902;6.024;2024-03-02T06:44:46;0.20;;;0.20;;
52458;SDS011;38372;52.902;6.024;2024-03-02T06:47:12;1.85;;;0.40;;
52458;SDS011;38372;52.902;6.024;2024-03-02T06:49:37;0.85;;;0.50;;
52458;SDS011;38372;52.902;6.024;2024-03-02T06:52:09;0.70;;;0.40;;
52458;SDS011;38372;52.902;6.024;2024-03-02T06:54:36;0.32;;;0.32;;
52458;SDS011;38372;52.902;6.024;2024-03-02T06:57:02;0.52;;;0.30;;
52458;SDS011;38372;52.902;6.024;2024-03-02T06:59:28;0.20;;;0.20;;
52458;SDS011;38372;52.902;6.024;2024-03-02T07:01:53;0.10;;;0.10;;
52458;SDS011;38372;52.902;6.024;2024-03-02T07:04:19;0.30;;;0.13;;
52458;SDS011;38372;52.902;6.024;2024-03-02T07:06:45;0.30;;;0.20;;
52458;SDS011;38372;52.902;6.024;2024-03-02T07:09:10;0.40;;;0.30;;
52458;SDS011;38372;52.902;6.024;2024-03-02T07:11:37;1.27;;;0.50;;
52458;SDS011;38372;52.902;6.024;2024-03-02T07:14:02;0.30;;;0.25;;
52458;SDS011;38372;52.902;6.024;2024-03-02T07:16:28;0.95;;;0.30;;
52458;SDS011;38372;52.902;6.024;2024-03-02T07:18:58;0.28;;;0.28;;
52458;SDS011;38372;52.902;6.024;2024-03-02T07:21:24;0.28;;;0.25;;
52458;SDS011;38372;52.902;6.024;2024-03-02T07:23:50;0.25;;;0.20;;
52458;SDS011;38372;52.902;6.024;2024-03-02T07:26:16;0.43;;;0.30;;
52458;SDS011;38372;52.902;6.024;2024-03-02T07:28:43;1.35;;;0.30;;
52458;SDS011;38372;52.902;6.024;2024-03-02T07:31:11;0.17;;;0.17;;
52458;SDS011;38372;52.902;6.024;2024-03-02T07:33:36;0.52;;;0.35;;
52458;SDS011;38372;52.902;6.024;2024-03-02T07:36:02;0.40;;;0.30;;
52458;SDS011;38372;52.902;6.024;2024-03-02T07:38:28;2.22;;;0.80;;
52458;SDS011;38372;52.902;6.024;2024-03-02T07:40:55;2.50;;;0.75;;
52458;SDS011;38372;52.902;6.024;2024-03-02T07:43:21;1.15;;;0.55;;
52458;SDS011;38372;52.902;6.024;2024-03-02T07:45:47;2.60;;;0.65;;
52458;SDS011;38372;52.902;6.024;2024-03-02T07:48:14;1.55;;;0.57;;
52458;SDS011;38372;52.902;6.024;2024-03-02T07:50:58;0.50;;;0.30;;
52458;SDS011;38372;52.902;6.024;2024-03-02T07:53:44;1.25;;;0.30;;
52458;SDS011;38372;52.902;6.024;2024-03-02T07:56:10;8.38;;;0.50;;
52458;SDS011;38372;52.902;6.024;2024-03-02T07:58:38;0.82;;;0.50;;
52458;SDS011;38372;52.902;6.024;2024-03-02T08:01:13;0.90;;;0.50;;
52458;SDS011;38372;52.902;6.024;2024-03-02T08:03:39;1.00;;;0.30;;
52458;SDS011;38372;52.902;6.024;2024-03-02T08:06:04;2.28;;;0.60;;
52458;SDS011;38372;52.902;6.024;2024-03-02T08:08:31;0.90;;;0.47;;
52458;SDS011;38372;52.902;6.024;2024-03-02T08:10:57;0.35;;;0.30;;
52458;SDS011;38372;52.902;6.024;2024-03-02T08:13:23;5.65;;;0.65;;
52458;SDS011;38372;52.902;6.024;2024-03-02T08:15:49;1.05;;;0.30;;
52458;SDS011;38372;52.902;6.024;2024-03-02T08:18:14;3.30;;;0.52;;
52458;SDS011;38372;52.902;6.024;2024-03-02T08:20:53;4.78;;;1.27;;
52458;SDS011;38372;52.902;6.024;2024-03-02T08:23:18;0.80;;;0.40;;
52458;SDS011;38372;52.902;6.024;2024-03-02T08:25:44;0.20;;;0.20;;
52458;SDS011;38372;52.902;6.024;2024-03-02T08:28:10;0.40;;;0.30;;
52458;SDS011;38372;52.902;6.024;2024-03-02T08:30:36;0.77;;;0.45;;
52458;SDS011;38372;52.902;6.024;2024-03-02T08:33:02;0.47;;;0.30;;
52458;SDS011;38372;52.902;6.024;2024-03-02T08:35:28;0.10;;;0.10;;
52458;SDS011;38372;52.902;6.024;2024-03-02T08:37:53;0.35;;;0.30;;
52458;SDS011;38372;52.902;6.024;2024-03-02T08:40:19;1.58;;;0.20;;
52458;SDS011;38372;52.902;6.024;2024-03-02T08:42:45;1.98;;;0.40;;
52458;SDS011;38372;52.902;6.024;2024-03-02T08:45:12;0.55;;;0.30;;
52458;SDS011;38372;52.902;6.024;2024-03-02T08:47:38;0.63;;;0.52;;
52458;SDS011;38372;52.902;6.024;2024-03-02T08:50:04;2.72;;;0.38;;
52458;SDS011;38372;52.902;6.024;2024-03-02T08:52:31;0.30;;;0.17;;
52458;SDS011;38372;52.902;6.024;2024-03-02T08:55:04;1.25;;;0.47;;
52458;SDS011;38372;52.902;6.024;2024-03-02T08:57:40;1.13;;;0.57;;
52458;SDS011;38372;52.902;6.024;2024-03-02T09:00:20;0.98;;;0.30;;
52458;SDS011;38372;52.902;6.024;2024-03-02T09:02:53;0.57;;;0.27;;
52458;SDS011;38372;52.902;6.024;2024-03-02T09:05:19;0.95;;;0.40;;
52458;SDS011;38372;52.902;6.024;2024-03-02T09:07:45;0.50;;;0.17;;
52458;SDS011;38372;52.902;6.024;2024-03-02T09:10:10;0.10;;;0.10;;
52458;SDS011;38372;52.902;6.024;2024-03-02T09:12:36;0.77;;;0.30;;
52458;SDS011;38372;52.902;6.024;2024-03-02T09:15:03;0.30;;;0.20;;
52458;SDS011;38372;52.902;6.024;2024-03-02T09:17:29;2.45;;;0.40;;
52458;SDS011;38372;52.902;6.024;2024-03-02T09:19:55;0.15;;;0.15;;
52458;SDS011;38372;52.902;6.024;2024-03-02T09:22:21;1.40;;;0.50;;
52458;SDS011;38372;52.902;6.024;2024-03-02T09:24:48;1.75;;;0.35;;
52458;SDS011;38372;52.902;6.024;2024-03-02T09:27:14;2.83;;;0.82;;
52458;SDS011;38372;52.902;6.024;2024-03-02T09:29:39;2.00;;;0.32;;
52458;SDS011;38372;52.902;6.024;2024-03-02T09:32:06;1.63;;;0.82;;
52458;SDS011;38372;52.902;6.024;2024-03-02T09:34:32;0.20;;;0.20;;
52458;SDS011;38372;52.902;6.024;2024-03-02T09:36:58;1.67;;;0.32;;
52458;SDS011;38372;52.902;6.024;2024-03-02T09:39:24;0.20;;;0.20;;
52458;SDS011;38372;52.902;6.024;2024-03-02T09:41:52;0.95;;;0.50;;
52458;SDS011;38372;52.902;6.024;2024-03-02T09:44:24;2.35;;;0.80;;
52458;SDS011;38372;52.902;6.024;2024-03-02T09:46:51;0.57;;;0.30;;
52458;SDS011;38372;52.902;6.024;2024-03-02T09:49:17;0.30;;;0.30;;
52458;SDS011;38372;52.902;6.024;2024-03-02T09:51:49;0.43;;;0.30;;
52458;SDS011;38372;52.902;6.024;2024-03-02T09:54:28;1.92;;;0.70;;
52458;SDS011;38372;52.902;6.024;2024-03-02T09:56:54;0.20;;;0.20;;
52458;SDS011;38372;52.902;6.024;2024-03-02T10:02:11;2.92;;;0.47;;
52458;SDS011;38372;52.902;6.024;2024-03-02T10:04:36;0.70;;;0.50;;
52458;SDS011;38372;52.902;6.024;2024-03-02T10:09:34;1.13;;;0.40;;
52458;SDS011;38372;52.902;6.024;2024-03-02T10:12:07;1.05;;;0.40;;
52458;SDS011;38372;52.902;6.024;2024-03-02T10:14:41;0.52;;;0.32;;
52458;SDS011;38372;52.902;6.024;2024-03-02T10:17:10;0.77;;;0.47;;
52458;SDS011;38372;52.902;6.024;2024-03-02T10:22:04;0.63;;;0.30;;
52458;SDS011;38372;52.902;6.024;2024-03-02T10:24:35;4.13;;;0.40;;
52458;SDS011;38372;52.902;6.024;2024-03-02T10:27:05;0.35;;;0.30;;
52458;SDS011;38372;52.902;6.024;2024-03-02T10:29:33;0.30;;;0.20;;
52458;SDS011;38372;52.902;6.024;2024-03-02T10:32:02;0.65;;;0.22;;
52458;SDS011;38372;52.902;6.024;2024-03-02T10:34:28;0.95;;;0.30;;
52458;SDS011;38372;52.902;6.024;2024-03-02T10:36:54;0.63;;;0.38;;
52458;SDS011;38372;52.902;6.024;2024-03-02T10:39:23;2.13;;;0.60;;
52458;SDS011;38372;52.902;6.024;2024-03-02T10:41:49;0.13;;;0.13;;
52458;SDS011;38372;52.902;6.024;2024-03-02T10:44:18;1.02;;;0.22;;
52458;SDS011;38372;52.902;6.024;2024-03-02T10:46:45;0.95;;;0.55;;
52458;SDS011;38372;52.902;6.024;2024-03-02T10:49:12;0.60;;;0.20;;
52458;SDS011;38372;52.902;6.024;2024-03-02T10:51:38;1.27;;;0.20;;
52458;SDS011;38372;52.902;6.024;2024-03-02T10:54:10;0.88;;;0.40;;
52458;SDS011;38372;52.902;6.024;2024-03-02T10:56:40;0.10;;;0.10;;
52458;SDS011;38372;52.902;6.024;2024-03-02T10:59:15;1.67;;;0.40;;
52458;SDS011;38372;52.902;6.024;2024-03-02T11:01:47;3.17;;;0.45;;
52458;SDS011;38372;52.902;6.024;2024-03-02T11:04:16;0.47;;;0.20;;
52458;SDS011;38372;52.902;6.024;2024-03-02T11:06:50;1.75;;;0.45;;
52458;SDS011;38372;52.902;6.024;2024-03-02T11:09:22;0.88;;;0.68;;
52458;SDS011;38372;52.902;6.024;2024-03-02T11:11:56;1.15;;;0.63;;
52458;SDS011;38372;52.902;6.024;2024-03-02T11:14:30;2.65;;;0.40;;
52458;SDS011;38372;52.902;6.024;2024-03-02T11:17:00;1.40;;;0.30;;
52458;SDS011;38372;52.902;6.024;2024-03-02T11:19:28;1.90;;;0.57;;
52458;SDS011;38372;52.902;6.024;2024-03-02T11:21:55;1.25;;;0.35;;
52458;SDS011;38372;52.902;6.024;2024-03-02T11:26:50;1.08;;;0.30;;
52458;SDS011;38372;52.902;6.024;2024-03-02T11:32:04;1.38;;;0.60;;
52458;SDS011;38372;52.902;6.024;2024-03-02T11:34:35;5.38;;;0.82;;
52458;SDS011;38372;52.902;6.024;2024-03-02T11:39:27;1.23;;;0.10;;
52458;SDS011;38372;52.902;6.024;2024-03-02T11:41:57;1.05;;;0.38;;
52458;SDS011;38372;52.902;6.024;2024-03-02T11:44:26;0.40;;;0.20;;
52458;SDS011;38372;52.902;6.024;2024-03-02T11:46:58;0.75;;;0.57;;
52458;SDS011;38372;52.902;6.024;2024-03-02T11:49:41;0.90;;;0.30;;
52458;SDS011;38372;52.902;6.024;2024-03-02T11:52:15;0.52;;;0.50;;
52458;SDS011;38372;52.902;6.024;2024-03-02T11:54:54;1.55;;;0.32;;
52458;SDS011;38372;52.902;6.024;2024-03-02T11:57:21;2.05;;;0.30;;
52458;SDS011;38372;52.902;6.024;2024-03-02T11:59:47;0.65;;;0.20;;
52458;SDS011;38372;52.902;6.024;2024-03-02T12:02:19;1.23;;;0.20;;
52458;SDS011;38372;52.902;6.024;2024-03-02T12:04:46;0.40;;;0.30;;
52458;SDS011;38372;52.902;6.024;2024-03-02T12:07:20;0.80;;;0.32;;
52458;SDS011;38372;52.902;6.024;2024-03-02T12:09:47;0.63;;;0.28;;
52458;SDS011;38372;52.902;6.024;2024-03-02T12:12:14;3.83;;;0.63;;
52458;SDS011;38372;52.902;6.024;2024-03-02T12:14:50;3.15;;;0.70;;
52458;SDS011;38372;52.902;6.024;2024-03-02T12:17:17;0.82;;;0.20;;
52458;SDS011;38372;52.902;6.024;2024-03-02T12:19:44;1.98;;;0.32;;
52458;SDS011;38372;52.902;6.024;2024-03-02T12:22:11;3.10;;;0.30;;
52458;SDS011;38372;52.902;6.024;2024-03-02T12:24:37;0.47;;;0.38;;
52458;SDS011;38372;52.902;6.024;2024-03-02T12:27:03;1.15;;;0.50;;
52458;SDS011;38372;52.902;6.024;2024-03-02T12:29:30;0.30;;;0.17;;
52458;SDS011;38372;52.902;6.024;2024-03-02T12:31:56;0.15;;;0.10;;
52458;SDS011;38372;52.902;6.024;2024-03-02T12:34:22;1.02;;;0.35;;
52458;SDS011;38372;52.902;6.024;2024-03-02T12:36:48;0.20;;;0.20;;
52458;SDS011;38372;52.902;6.024;2024-03-02T12:39:17;0.68;;;0.32;;
52458;SDS011;38372;52.902;6.024;2024-03-02T12:41:48;0.25;;;0.17;;
52458;SDS011;38372;52.902;6.024;2024-03-02T12:44:16;0.77;;;0.50;;
52458;SDS011;38372;52.902;6.024;2024-03-02T12:46:42;0.68;;;0.68;;
52458;SDS011;38372;52.902;6.024;2024-03-02T12:49:11;1.85;;;0.40;;
52458;SDS011;38372;52.902;6.024;2024-03-02T12:51:50;3.08;;;0.30;;
52458;SDS011;38372;52.902;6.024;2024-03-02T12:54:29;1.00;;;0.30;;
52458;SDS011;38372;52.902;6.024;2024-03-02T12:56:56;1.02;;;0.35;;
52458;SDS011;38372;52.902;6.024;2024-03-02T12:59:23;0.70;;;0.63;;
52458;SDS011;38372;52.902;6.024;2024-03-02T13:01:52;0.28;;;0.28;;
52458;SDS011;38372;52.902;6.024;2024-03-02T13:04:21;0.80;;;0.30;;
52458;SDS011;38372;52.902;6.024;2024-03-02T13:06:48;0.43;;;0.20;;
52458;SDS011;38372;52.902;6.024;2024-03-02T13:09:15;0.52;;;0.20;;
52458;SDS011;38372;52.902;6.024;2024-03-02T13:11:41;1.67;;;0.45;;
52458;SDS011;38372;52.902;6.024;2024-03-02T13:14:07;0.30;;;0.20;;
52458;SDS011;38372;52.902;6.024;2024-03-02T13:16:38;1.35;;;0.47;;
52458;SDS011;38372;52.902;6.024;2024-03-02T13:19:08;1.35;;;0.40;;
52458;SDS011;38372;52.902;6.024;2024-03-02T13:21:36;0.77;;;0.32;;
52458;SDS011;38372;52.902;6.024;2024-03-02T13:24:03;0.88;;;0.30;;
52458;SDS011;38372;52.902;6.024;2024-03-02T13:26:29;0.40;;;0.22;;
52458;SDS011;38372;52.902;6.024;2024-03-02T13:28:56;1.67;;;0.60;;
52458;SDS011;38372;52.902;6.024;2024-03-02T13:31:21;1.60;;;0.52;;
52458;SDS011;38372;52.902;6.024;2024-03-02T13:33:47;0.80;;;0.47;;
52458;SDS011;38372;52.902;6.024;2024-03-02T13:36:13;2.65;;;1.00;;
52458;SDS011;38372;52.902;6.024;2024-03-02T13:38:39;2.58;;;0.60;;
52458;SDS011;38372;52.902;6.024;2024-03-02T13:41:05;3.33;;;1.00;;
52458;SDS011;38372;52.902;6.024;2024-03-02T13:43:31;1.42;;;0.50;;
52458;SDS011;38372;52.902;6.024;2024-03-02T13:46:03;0.73;;;0.30;;
52458;SDS011;38372;52.902;6.024;2024-03-02T13:48:29;0.70;;;0.40;;
52458;SDS011;38372;52.902;6.024;2024-03-02T13:50:56;1.05;;;0.63;;
52458;SDS011;38372;52.902;6.024;2024-03-02T13:53:28;2.78;;;0.40;;
52458;SDS011;38372;52.902;6.024;2024-03-02T13:55:54;3.30;;;0.60;;
52458;SDS011;38372;52.902;6.024;2024-03-02T13:58:20;1.95;;;0.65;;
52458;SDS011;38372;52.902;6.024;2024-03-02T14:00:46;1.67;;;0.43;;
52458;SDS011;38372;52.902;6.024;2024-03-02T14:03:12;0.52;;;0.20;;
52458;SDS011;38372;52.902;6.024;2024-03-02T14:05:38;0.30;;;0.30;;
52458;SDS011;38372;52.902;6.024;2024-03-02T14:08:04;1.08;;;0.45;;
52458;SDS011;38372;52.902;6.024;2024-03-02T14:10:30;1.85;;;0.52;;
52458;SDS011;38372;52.902;6.024;2024-03-02T14:12:56;1.95;;;0.93;;
52458;SDS011;38372;52.902;6.024;2024-03-02T14:15:22;1.88;;;0.57;;
52458;SDS011;38372;52.902;6.024;2024-03-02T14:17:49;0.90;;;0.32;;
52458;SDS011;38372;52.902;6.024;2024-03-02T14:20:15;1.40;;;0.75;;
52458;SDS011;38372;52.902;6.024;2024-03-02T14:22:46;0.93;;;0.70;;
52458;SDS011;38372;52.902;6.024;2024-03-02T14:25:13;2.47;;;0.50;;
52458;SDS011;38372;52.902;6.024;2024-03-02T14:27:38;2.17;;;1.08;;
52458;SDS011;38372;52.902;6.024;2024-03-02T14:30:05;0.57;;;0.40;;
52458;SDS011;38372;52.902;6.024;2024-03-02T14:32:32;2.70;;;1.33;;
52458;SDS011;38372;52.902;6.024;2024-03-02T14:34:57;1.20;;;0.70;;
52458;SDS011;38372;52.902;6.024;2024-03-02T14:37:23;2.58;;;0.82;;
52458;SDS011;38372;52.902;6.024;2024-03-02T14:39:49;1.63;;;0.98;;
52458;SDS011;38372;52.902;6.024;2024-03-02T14:42:15;1.73;;;0.60;;
52458;SDS011;38372;52.902;6.024;2024-03-02T14:44:41;0.63;;;0.50;;
52458;SDS011;38372;52.902;6.024;2024-03-02T14:47:07;1.45;;;0.57;;
52458;SDS011;38372;52.902;6.024;2024-03-02T14:49:33;0.80;;;0.50;;
52458;SDS011;38372;52.902;6.024;2024-03-02T14:52:02;2.40;;;1.27;;
52458;SDS011;38372;52.902;6.024;2024-03-02T14:54:47;0.87;;;0.60;;
52458;SDS011;38372;52.902;6.024;2024-03-02T14:57:13;1.33;;;0.70;;
52458;SDS011;38372;52.902;6.024;2024-03-02T14:59:39;2.97;;;1.02;;
52458;SDS011;38372;52.902;6.024;2024-03-02T15:02:05;1.23;;;0.88;;
52458;SDS011;38372;52.902;6.024;2024-03-02T15:04:33;2.08;;;1.00;;
52458;SDS011;38372;52.902;6.024;2024-03-02T15:06:59;1.27;;;1.00;;
52458;SDS011;38372;52.902;6.024;2024-03-02T15:09:25;3.42;;;1.30;;
52458;SDS011;38372;52.902;6.024;2024-03-02T15:11:50;1.35;;;0.75;;
52458;SDS011;38372;52.902;6.024;2024-03-02T15:14:16;2.28;;;1.13;;